KSVC  Grant County Airport

Add Bookmark

Silver City, New Mexico, United States

Status Useage IATA
Operational Public SVC
Latitude Longitude
32° 38' 11" N 108° 9' 22" W
32.636547 -108.156385
Local (DST -6) UTC (GMT -7)
Dec 18, 2014 11:17 Dec 18, 2014 18:17
Sunrise-Sunset Local UTC
Begin Civil Twilight 06:40 13:40
Sunrise 07:08 14:08
Sunset 05:11 00:11
End Civil Twilight 05:38 00:38

Current Weather

METAR Observed MVFR
KSVC 181755Z AUTO 00000KT 10SM BKN029 BKN034 OVC042 06/01 A3017 Thu, Dec 18, 2014 @ 17:55 UTC
(22 Minutes ago)
Marginal Visual Flight Rules
Wind Visibility Clouds Conditions
Calm 10 statute miles
  • Broken at 2,900' AGL
  • Broken at 3,400' AGL
  • Overcast at 4,200' AGL
  • No significant weather
Temperatures Readings Precipitation
Current Temp 6°C (43°F)
Dewpoint 1°C (34°F)
Humidity 71%
Altimeter 30.17"Hg
Sea Level Pressure 1022mb
Field Elevation 5443.01'
None Recorded

Additional weather within a 50nm radius of KSVC

Map ICAO Location
KDMN 31.5nm S (135°)
KLSB 32.6nm S (236°)

24 Hour Weather History

Loading
-

24 Hour Weather Graphs

Loading
-

CheckWX.com is intended as a tool to help pilots better visualize weather data. It is not intended as a substitute for an official weather briefing obtained from a Flight Service Station. CheckWX.com does not meet the FAA requirements for an official pre-flight weather briefing. Therefore, it's important that pilots still call and obtain an official FSS pre-flight weather briefing.